Alzingen, Luxembourg
Current Conditions -  °F | °C
As of 7:20 AM on Monday 26 Jan 2015 (Local Time) from ELLX Reporting Station
Haze Haze  
Wind Chill: 27°   Ceiling: 100
Heat Index: 32°   Visibility: 0.68mi
Dew Point: 32°   Wind: 5mph
Humidity: 100%   Direction: 210°SSW
Pressure: 30.24"   Gusts: NA
Location:  49.57°N, 6.16°E
Report Text: ELLX 260620Z 21004KT 180V240 1100 R24/P1500N BR BKN001 00/00 Q1024 TEMPO FM0750 -FZDZ
Loading
Personal Weather Stations






























Interactive Weather Map New forecast layout! Learn more

10-Day Weather Forecast

Advertisements
Track Severe Weather on mobile